sensor_id;sensor_type;location;lat;lon;timestamp;temperature;humidity
1447;DHT22;717;51.522;7.266;2023-01-01T00:01:58;19.20;97.60
1447;DHT22;717;51.522;7.266;2023-01-01T00:04:27;19.10;97.60
1447;DHT22;717;51.522;7.266;2023-01-01T00:06:57;19.10;97.40
1447;DHT22;717;51.522;7.266;2023-01-01T00:09:25;19.10;97.40
1447;DHT22;717;51.522;7.266;2023-01-01T00:12:09;19.10;97.30
1447;DHT22;717;51.522;7.266;2023-01-01T00:14:37;19.10;97.20
1447;DHT22;717;51.522;7.266;2023-01-01T00:17:09;19.10;97.30
1447;DHT22;717;51.522;7.266;2023-01-01T00:19:37;19.10;97.20
1447;DHT22;717;51.522;7.266;2023-01-01T00:22:05;19.10;97.10
1447;DHT22;717;51.522;7.266;2023-01-01T00:24:34;19.20;96.90
1447;DHT22;717;51.522;7.266;2023-01-01T00:27:02;19.20;97.00
1447;DHT22;717;51.522;7.266;2023-01-01T00:29:33;19.10;96.80
1447;DHT22;717;51.522;7.266;2023-01-01T00:32:03;19.10;96.90
1447;DHT22;717;51.522;7.266;2023-01-01T00:34:31;19.20;96.90
1447;DHT22;717;51.522;7.266;2023-01-01T00:37:00;19.20;97.00
1447;DHT22;717;51.522;7.266;2023-01-01T00:39:28;19.20;97.20
1447;DHT22;717;51.522;7.266;2023-01-01T00:41:57;19.20;97.10
1447;DHT22;717;51.522;7.266;2023-01-01T00:44:25;19.20;97.10
1447;DHT22;717;51.522;7.266;2023-01-01T00:46:56;19.20;97.20
1447;DHT22;717;51.522;7.266;2023-01-01T00:49:24;19.20;97.00
1447;DHT22;717;51.522;7.266;2023-01-01T00:51:53;19.20;96.80
1447;DHT22;717;51.522;7.266;2023-01-01T00:54:22;19.10;96.80
1447;DHT22;717;51.522;7.266;2023-01-01T00:56:50;19.10;96.80
1447;DHT22;717;51.522;7.266;2023-01-01T00:59:18;19.10;96.70
1447;DHT22;717;51.522;7.266;2023-01-01T01:01:47;19.10;96.70
1447;DHT22;717;51.522;7.266;2023-01-01T01:04:18;19.10;96.70
1447;DHT22;717;51.522;7.266;2023-01-01T01:06:47;19.10;96.40
1447;DHT22;717;51.522;7.266;2023-01-01T01:09:15;19.00;96.40
1447;DHT22;717;51.522;7.266;2023-01-01T01:11:44;19.10;96.20
1447;DHT22;717;51.522;7.266;2023-01-01T01:14:12;19.10;96.10
1447;DHT22;717;51.522;7.266;2023-01-01T01:16:41;19.00;96.10
1447;DHT22;717;51.522;7.266;2023-01-01T01:19:09;19.10;95.90
1447;DHT22;717;51.522;7.266;2023-01-01T01:21:45;19.00;95.70
1447;DHT22;717;51.522;7.266;2023-01-01T01:24:15;19.00;95.40
1447;DHT22;717;51.522;7.266;2023-01-01T01:26:44;19.00;95.60
1447;DHT22;717;51.522;7.266;2023-01-01T01:29:12;19.00;95.50
1447;DHT22;717;51.522;7.266;2023-01-01T01:31:41;19.00;95.60
1447;DHT22;717;51.522;7.266;2023-01-01T01:34:09;19.00;95.80
1447;DHT22;717;51.522;7.266;2023-01-01T01:36:40;19.00;95.70
1447;DHT22;717;51.522;7.266;2023-01-01T01:39:12;19.10;95.60
1447;DHT22;717;51.522;7.266;2023-01-01T01:41:41;19.10;95.40
1447;DHT22;717;51.522;7.266;2023-01-01T01:47:08;19.00;95.30
1447;DHT22;717;51.522;7.266;2023-01-01T01:49:43;19.00;95.30
1447;DHT22;717;51.522;7.266;2023-01-01T01:52:12;19.00;95.00
1447;DHT22;717;51.522;7.266;2023-01-01T01:54:44;18.90;95.10
1447;DHT22;717;51.522;7.266;2023-01-01T01:57:13;18.90;95.00
1447;DHT22;717;51.522;7.266;2023-01-01T01:59:47;18.90;94.80
1447;DHT22;717;51.522;7.266;2023-01-01T02:02:21;18.90;94.50
1447;DHT22;717;51.522;7.266;2023-01-01T02:04:54;18.80;94.40
1447;DHT22;717;51.522;7.266;2023-01-01T02:07:25;18.80;94.60
1447;DHT22;717;51.522;7.266;2023-01-01T02:09:56;18.80;94.40
1447;DHT22;717;51.522;7.266;2023-01-01T02:12:25;18.80;94.40
1447;DHT22;717;51.522;7.266;2023-01-01T02:14:54;18.70;94.20
1447;DHT22;717;51.522;7.266;2023-01-01T02:17:28;18.70;94.10
1447;DHT22;717;51.522;7.266;2023-01-01T02:20:10;18.70;94.20
1447;DHT22;717;51.522;7.266;2023-01-01T02:23:08;18.70;94.60
1447;DHT22;717;51.522;7.266;2023-01-01T02:25:51;18.70;94.30
1447;DHT22;717;51.522;7.266;2023-01-01T02:28:36;18.70;94.10
1447;DHT22;717;51.522;7.266;2023-01-01T02:31:10;18.70;94.10
1447;DHT22;717;51.522;7.266;2023-01-01T02:33:39;18.70;94.10
1447;DHT22;717;51.522;7.266;2023-01-01T02:36:11;18.60;93.90
1447;DHT22;717;51.522;7.266;2023-01-01T02:38:43;18.60;94.40
1447;DHT22;717;51.522;7.266;2023-01-01T02:41:18;18.60;94.10
1447;DHT22;717;51.522;7.266;2023-01-01T02:43:50;18.60;94.00
1447;DHT22;717;51.522;7.266;2023-01-01T02:46:19;18.60;94.10
1447;DHT22;717;51.522;7.266;2023-01-01T02:48:49;18.60;93.90
1447;DHT22;717;51.522;7.266;2023-01-01T02:51:24;18.60;94.20
1447;DHT22;717;51.522;7.266;2023-01-01T02:54:01;18.70;94.00
1447;DHT22;717;51.522;7.266;2023-01-01T02:56:37;18.60;93.70
1447;DHT22;717;51.522;7.266;2023-01-01T02:59:19;18.60;94.00
1447;DHT22;717;51.522;7.266;2023-01-01T03:02:07;18.60;93.90
1447;DHT22;717;51.522;7.266;2023-01-01T03:04:46;18.50;93.80
1447;DHT22;717;51.522;7.266;2023-01-01T03:07:23;18.50;93.90
1447;DHT22;717;51.522;7.266;2023-01-01T03:09:58;18.50;93.60
1447;DHT22;717;51.522;7.266;2023-01-01T03:12:32;18.40;93.70
1447;DHT22;717;51.522;7.266;2023-01-01T03:15:18;18.40;93.90
1447;DHT22;717;51.522;7.266;2023-01-01T03:17:50;18.50;94.00
1447;DHT22;717;51.522;7.266;2023-01-01T03:20:24;18.40;93.70
1447;DHT22;717;51.522;7.266;2023-01-01T03:23:00;18.40;93.60
1447;DHT22;717;51.522;7.266;2023-01-01T03:25:32;18.40;93.50
1447;DHT22;717;51.522;7.266;2023-01-01T03:28:04;18.40;93.60
1447;DHT22;717;51.522;7.266;2023-01-01T03:30:38;18.40;93.70
1447;DHT22;717;51.522;7.266;2023-01-01T03:33:11;18.40;94.00
1447;DHT22;717;51.522;7.266;2023-01-01T03:35:44;18.40;93.90
1447;DHT22;717;51.522;7.266;2023-01-01T03:38:17;18.40;93.80
1447;DHT22;717;51.522;7.266;2023-01-01T03:40:49;18.40;93.90
1447;DHT22;717;51.522;7.266;2023-01-01T03:43:21;18.30;93.80
1447;DHT22;717;51.522;7.266;2023-01-01T03:45:54;18.30;93.80
1447;DHT22;717;51.522;7.266;2023-01-01T03:48:24;18.30;94.00
1447;DHT22;717;51.522;7.266;2023-01-01T03:50:57;18.30;94.00
1447;DHT22;717;51.522;7.266;2023-01-01T03:53:35;18.30;93.80
1447;DHT22;717;51.522;7.266;2023-01-01T03:56:11;18.30;93.90
1447;DHT22;717;51.522;7.266;2023-01-01T03:58:46;18.30;93.90
1447;DHT22;717;51.522;7.266;2023-01-01T04:01:23;18.20;93.80
1447;DHT22;717;51.522;7.266;2023-01-01T04:03:53;18.20;93.70
1447;DHT22;717;51.522;7.266;2023-01-01T04:06:23;18.20;94.00
1447;DHT22;717;51.522;7.266;2023-01-01T04:08:54;18.20;94.00
1447;DHT22;717;51.522;7.266;2023-01-01T04:11:26;18.20;94.20
1447;DHT22;717;51.522;7.266;2023-01-01T04:14:08;18.20;94.10
1447;DHT22;717;51.522;7.266;2023-01-01T04:16:39;18.20;94.10
1447;DHT22;717;51.522;7.266;2023-01-01T04:19:07;18.20;94.20
1447;DHT22;717;51.522;7.266;2023-01-01T04:21:36;18.20;94.20
1447;DHT22;717;51.522;7.266;2023-01-01T04:24:05;18.20;94.20
1447;DHT22;717;51.522;7.266;2023-01-01T04:26:34;18.20;94.40
1447;DHT22;717;51.522;7.266;2023-01-01T04:29:03;18.20;94.50
1447;DHT22;717;51.522;7.266;2023-01-01T04:31:32;18.20;94.60
1447;DHT22;717;51.522;7.266;2023-01-01T04:34:03;18.20;94.60
1447;DHT22;717;51.522;7.266;2023-01-01T04:36:32;18.20;94.70
1447;DHT22;717;51.522;7.266;2023-01-01T04:39:02;18.20;94.70
1447;DHT22;717;51.522;7.266;2023-01-01T04:41:31;18.20;94.60
1447;DHT22;717;51.522;7.266;2023-01-01T04:44:00;18.20;94.70
1447;DHT22;717;51.522;7.266;2023-01-01T04:46:28;18.20;94.80
1447;DHT22;717;51.522;7.266;2023-01-01T04:48:57;18.20;94.90
1447;DHT22;717;51.522;7.266;2023-01-01T04:51:28;18.20;94.90
1447;DHT22;717;51.522;7.266;2023-01-01T04:53:57;18.20;94.80
1447;DHT22;717;51.522;7.266;2023-01-01T04:56:27;18.20;94.80
1447;DHT22;717;51.522;7.266;2023-01-01T04:58:55;18.20;94.90
1447;DHT22;717;51.522;7.266;2023-01-01T05:01:26;18.10;94.90
1447;DHT22;717;51.522;7.266;2023-01-01T05:03:55;18.10;95.40
1447;DHT22;717;51.522;7.266;2023-01-01T05:06:27;18.10;95.30
1447;DHT22;717;51.522;7.266;2023-01-01T05:08:56;18.20;95.20
1447;DHT22;717;51.522;7.266;2023-01-01T05:11:27;18.20;95.30
1447;DHT22;717;51.522;7.266;2023-01-01T05:13:58;18.20;95.30
1447;DHT22;717;51.522;7.266;2023-01-01T05:16:32;18.20;95.30
1447;DHT22;717;51.522;7.266;2023-01-01T05:19:01;18.20;95.40
1447;DHT22;717;51.522;7.266;2023-01-01T05:21:34;18.20;95.40
1447;DHT22;717;51.522;7.266;2023-01-01T05:24:05;18.10;95.40
1447;DHT22;717;51.522;7.266;2023-01-01T05:26:35;18.10;95.40
1447;DHT22;717;51.522;7.266;2023-01-01T05:29:04;18.10;95.40
1447;DHT22;717;51.522;7.266;2023-01-01T05:31:34;18.10;95.50
1447;DHT22;717;51.522;7.266;2023-01-01T05:34:03;18.10;95.60
1447;DHT22;717;51.522;7.266;2023-01-01T05:36:36;18.10;95.90
1447;DHT22;717;51.522;7.266;2023-01-01T05:39:06;18.10;95.70
1447;DHT22;717;51.522;7.266;2023-01-01T05:41:35;18.10;95.80
1447;DHT22;717;51.522;7.266;2023-01-01T05:44:04;18.10;95.80
1447;DHT22;717;51.522;7.266;2023-01-01T05:46:33;18.10;95.70
1447;DHT22;717;51.522;7.266;2023-01-01T05:49:02;18.10;95.80
1447;DHT22;717;51.522;7.266;2023-01-01T05:51:33;18.10;95.80
1447;DHT22;717;51.522;7.266;2023-01-01T05:54:02;18.10;95.70
1447;DHT22;717;51.522;7.266;2023-01-01T05:56:30;18.00;95.70
1447;DHT22;717;51.522;7.266;2023-01-01T05:58:59;18.00;95.70
1447;DHT22;717;51.522;7.266;2023-01-01T06:01:29;18.00;95.80
1447;DHT22;717;51.522;7.266;2023-01-01T06:03:59;18.00;96.00
1447;DHT22;717;51.522;7.266;2023-01-01T06:06:29;18.00;96.10
1447;DHT22;717;51.522;7.266;2023-01-01T06:09:02;18.00;96.10
1447;DHT22;717;51.522;7.266;2023-01-01T06:11:32;18.00;96.40
1447;DHT22;717;51.522;7.266;2023-01-01T06:14:01;18.00;96.40
1447;DHT22;717;51.522;7.266;2023-01-01T06:16:30;18.00;96.50
1447;DHT22;717;51.522;7.266;2023-01-01T06:18:59;18.00;96.70
1447;DHT22;717;51.522;7.266;2023-01-01T06:21:28;18.00;96.90
1447;DHT22;717;51.522;7.266;2023-01-01T06:24:00;17.90;97.10
1447;DHT22;717;51.522;7.266;2023-01-01T06:26:30;17.90;97.20
1447;DHT22;717;51.522;7.266;2023-01-01T06:29:00;17.90;97.20
1447;DHT22;717;51.522;7.266;2023-01-01T06:31:29;17.80;97.30
1447;DHT22;717;51.522;7.266;2023-01-01T06:33:58;17.80;97.40
1447;DHT22;717;51.522;7.266;2023-01-01T06:36:26;17.80;97.40
1447;DHT22;717;51.522;7.266;2023-01-01T06:38:56;17.80;97.40
1447;DHT22;717;51.522;7.266;2023-01-01T06:41:27;17.80;97.30
1447;DHT22;717;51.522;7.266;2023-01-01T06:43:57;17.70;97.50
1447;DHT22;717;51.522;7.266;2023-01-01T06:46:27;17.70;97.40
1447;DHT22;717;51.522;7.266;2023-01-01T06:48:57;17.80;97.40
1447;DHT22;717;51.522;7.266;2023-01-01T06:51:28;17.70;97.20
1447;DHT22;717;51.522;7.266;2023-01-01T06:53:58;17.80;97.40
1447;DHT22;717;51.522;7.266;2023-01-01T06:56:30;17.70;97.40
1447;DHT22;717;51.522;7.266;2023-01-01T06:58:59;17.80;97.40
1447;DHT22;717;51.522;7.266;2023-01-01T07:01:30;17.70;97.30
1447;DHT22;717;51.522;7.266;2023-01-01T07:04:01;17.80;97.40
1447;DHT22;717;51.522;7.266;2023-01-01T07:06:31;17.70;97.40
1447;DHT22;717;51.522;7.266;2023-01-01T07:09:00;17.70;97.60
1447;DHT22;717;51.522;7.266;2023-01-01T07:11:31;17.60;97.80
1447;DHT22;717;51.522;7.266;2023-01-01T07:14:00;17.60;98.00
1447;DHT22;717;51.522;7.266;2023-01-01T07:16:28;17.60;98.10
1447;DHT22;717;51.522;7.266;2023-01-01T07:18:57;17.60;98.10
1447;DHT22;717;51.522;7.266;2023-01-01T07:21:30;17.60;98.20
1447;DHT22;717;51.522;7.266;2023-01-01T07:24:00;17.60;98.20
1447;DHT22;717;51.522;7.266;2023-01-01T07:26:32;17.60;98.30
1447;DHT22;717;51.522;7.266;2023-01-01T07:29:01;17.50;98.40
1447;DHT22;717;51.522;7.266;2023-01-01T07:31:30;17.50;98.40
1447;DHT22;717;51.522;7.266;2023-01-01T07:33:59;17.60;98.60
1447;DHT22;717;51.522;7.266;2023-01-01T07:36:27;17.60;98.50
1447;DHT22;717;51.522;7.266;2023-01-01T07:38:56;17.50;98.70
1447;DHT22;717;51.522;7.266;2023-01-01T07:41:24;17.60;98.90
1447;DHT22;717;51.522;7.266;2023-01-01T07:43:56;17.60;99.20
1447;DHT22;717;51.522;7.266;2023-01-01T07:46:24;17.60;99.30
1447;DHT22;717;51.522;7.266;2023-01-01T07:48:53;17.50;99.50
1447;DHT22;717;51.522;7.266;2023-01-01T07:51:21;17.50;99.70
1447;DHT22;717;51.522;7.266;2023-01-01T07:53:50;17.50;99.90
1447;DHT22;717;51.522;7.266;2023-01-01T07:56:18;17.40;99.90
1447;DHT22;717;51.522;7.266;2023-01-01T07:58:47;17.30;99.90
1447;DHT22;717;51.522;7.266;2023-01-01T08:01:18;17.30;99.90
1447;DHT22;717;51.522;7.266;2023-01-01T08:03:51;17.30;99.90
1447;DHT22;717;51.522;7.266;2023-01-01T08:06:20;17.20;99.90
1447;DHT22;717;51.522;7.266;2023-01-01T08:08:49;17.20;99.90
1447;DHT22;717;51.522;7.266;2023-01-01T08:11:17;17.10;99.90
1447;DHT22;717;51.522;7.266;2023-01-01T08:13:46;17.20;99.90
1447;DHT22;717;51.522;7.266;2023-01-01T08:16:14;17.10;99.90
1447;DHT22;717;51.522;7.266;2023-01-01T08:18:45;17.10;99.90
1447;DHT22;717;51.522;7.266;2023-01-01T08:21:14;17.10;99.90
1447;DHT22;717;51.522;7.266;2023-01-01T08:23:42;17.00;99.90
1447;DHT22;717;51.522;7.266;2023-01-01T08:26:13;17.00;99.90
1447;DHT22;717;51.522;7.266;2023-01-01T08:28:43;17.00;99.90
1447;DHT22;717;51.522;7.266;2023-01-01T08:31:12;16.90;99.90
1447;DHT22;717;51.522;7.266;2023-01-01T08:33:40;16.90;99.90
1447;DHT22;717;51.522;7.266;2023-01-01T08:36:12;16.90;99.90
1447;DHT22;717;51.522;7.266;2023-01-01T08:38:41;16.90;99.90
1447;DHT22;717;51.522;7.266;2023-01-01T08:41:10;16.80;99.90
1447;DHT22;717;51.522;7.266;2023-01-01T08:43:38;16.90;99.90
1447;DHT22;717;51.522;7.266;2023-01-01T08:46:07;16.90;99.90
1447;DHT22;717;51.522;7.266;2023-01-01T08:48:35;16.90;99.90
1447;DHT22;717;51.522;7.266;2023-01-01T08:51:04;16.90;99.90
1447;DHT22;717;51.522;7.266;2023-01-01T08:53:36;16.90;99.90
1447;DHT22;717;51.522;7.266;2023-01-01T08:56:06;16.90;99.90
1447;DHT22;717;51.522;7.266;2023-01-01T08:58:36;16.90;99.90
1447;DHT22;717;51.522;7.266;2023-01-01T09:01:06;16.90;99.90
1447;DHT22;717;51.522;7.266;2023-01-01T09:03:35;17.00;99.90
1447;DHT22;717;51.522;7.266;2023-01-01T09:06:04;16.90;99.90
1447;DHT22;717;51.522;7.266;2023-01-01T09:08:35;16.90;99.90
1447;DHT22;717;51.522;7.266;2023-01-01T09:11:04;16.90;99.90
1447;DHT22;717;51.522;7.266;2023-01-01T09:13:32;16.90;99.90
1447;DHT22;717;51.522;7.266;2023-01-01T09:16:01;16.90;99.90
1447;DHT22;717;51.522;7.266;2023-01-01T09:18:30;16.90;99.90
1447;DHT22;717;51.522;7.266;2023-01-01T09:20:58;17.00;99.90
1447;DHT22;717;51.522;7.266;2023-01-01T09:23:27;17.00;99.90
1447;DHT22;717;51.522;7.266;2023-01-01T09:26:01;17.00;99.90
1447;DHT22;717;51.522;7.266;2023-01-01T09:28:30;17.00;99.90
1447;DHT22;717;51.522;7.266;2023-01-01T09:30:58;17.00;99.90
1447;DHT22;717;51.522;7.266;2023-01-01T09:33:27;17.00;99.90
1447;DHT22;717;51.522;7.266;2023-01-01T09:36:10;17.00;99.90
1447;DHT22;717;51.522;7.266;2023-01-01T09:38:39;17.00;99.90
1447;DHT22;717;51.522;7.266;2023-01-01T09:41:15;17.00;99.90
1447;DHT22;717;51.522;7.266;2023-01-01T09:43:53;17.10;99.90
1447;DHT22;717;51.522;7.266;2023-01-01T09:46:25;17.10;99.90
1447;DHT22;717;51.522;7.266;2023-01-01T09:48:56;17.10;99.90
1447;DHT22;717;51.522;7.266;2023-01-01T09:51:29;17.10;99.90
1447;DHT22;717;51.522;7.266;2023-01-01T09:54:05;17.10;99.90
1447;DHT22;717;51.522;7.266;2023-01-01T09:56:39;17.10;99.90
1447;DHT22;717;51.522;7.266;2023-01-01T09:59:10;17.20;99.90
1447;DHT22;717;51.522;7.266;2023-01-01T10:01:43;17.20;99.90
1447;DHT22;717;51.522;7.266;2023-01-01T10:04:28;17.20;99.90
1447;DHT22;717;51.522;7.266;2023-01-01T10:07:16;17.20;99.90
1447;DHT22;717;51.522;7.266;2023-01-01T10:09:53;17.20;99.90
1447;DHT22;717;51.522;7.266;2023-01-01T10:12:34;17.20;99.90
1447;DHT22;717;51.522;7.266;2023-01-01T10:15:10;17.20;99.90
1447;DHT22;717;51.522;7.266;2023-01-01T10:17:43;17.30;99.90
1447;DHT22;717;51.522;7.266;2023-01-01T10:20:17;17.20;99.90
1447;DHT22;717;51.522;7.266;2023-01-01T10:22:51;17.30;99.90
1447;DHT22;717;51.522;7.266;2023-01-01T10:25:22;17.30;99.90
1447;DHT22;717;51.522;7.266;2023-01-01T10:27:58;17.30;99.90
1447;DHT22;717;51.522;7.266;2023-01-01T10:30:28;17.30;99.90
1447;DHT22;717;51.522;7.266;2023-01-01T10:32:56;17.20;99.90
1447;DHT22;717;51.522;7.266;2023-01-01T10:35:31;17.30;99.90
1447;DHT22;717;51.522;7.266;2023-01-01T10:38:02;17.30;99.90
1447;DHT22;717;51.522;7.266;2023-01-01T10:40:31;17.30;99.90
1447;DHT22;717;51.522;7.266;2023-01-01T10:43:05;17.20;99.90
1447;DHT22;717;51.522;7.266;2023-01-01T10:45:40;17.20;99.90
1447;DHT22;717;51.522;7.266;2023-01-01T10:48:12;17.30;99.90
1447;DHT22;717;51.522;7.266;2023-01-01T10:50:44;17.30;99.90
1447;DHT22;717;51.522;7.266;2023-01-01T10:53:22;17.30;99.90
1447;DHT22;717;51.522;7.266;2023-01-01T10:56:05;17.30;99.90
1447;DHT22;717;51.522;7.266;2023-01-01T10:58:42;17.30;99.90
1447;DHT22;717;51.522;7.266;2023-01-01T11:01:19;17.30;99.90
1447;DHT22;717;51.522;7.266;2023-01-01T11:03:56;17.40;99.90
1447;DHT22;717;51.522;7.266;2023-01-01T11:06:27;17.40;99.90
1447;DHT22;717;51.522;7.266;2023-01-01T11:09:00;17.40;99.90
1447;DHT22;717;51.522;7.266;2023-01-01T11:11:36;17.40;99.90
1447;DHT22;717;51.522;7.266;2023-01-01T11:14:18;17.40;99.90
1447;DHT22;717;51.522;7.266;2023-01-01T11:16:48;17.40;99.90
1447;DHT22;717;51.522;7.266;2023-01-01T11:19:21;17.40;99.90
1447;DHT22;717;51.522;7.266;2023-01-01T11:21:51;17.40;99.90
1447;DHT22;717;51.522;7.266;2023-01-01T11:24:21;17.40;99.90
1447;DHT22;717;51.522;7.266;2023-01-01T11:26:51;17.40;99.90
1447;DHT22;717;51.522;7.266;2023-01-01T11:29:25;17.40;99.90
1447;DHT22;717;51.522;7.266;2023-01-01T11:31:55;17.40;99.90
1447;DHT22;717;51.522;7.266;2023-01-01T11:34:28;17.40;99.90
1447;DHT22;717;51.522;7.266;2023-01-01T11:37:15;17.40;99.90
1447;DHT22;717;51.522;7.266;2023-01-01T11:39:48;17.40;99.90
1447;DHT22;717;51.522;7.266;2023-01-01T11:42:21;17.40;99.90
1447;DHT22;717;51.522;7.266;2023-01-01T11:44:55;17.40;99.90
1447;DHT22;717;51.522;7.266;2023-01-01T11:47:28;17.40;99.90
1447;DHT22;717;51.522;7.266;2023-01-01T11:50:01;17.50;99.90
1447;DHT22;717;51.522;7.266;2023-01-01T11:52:36;17.40;99.90
1447;DHT22;717;51.522;7.266;2023-01-01T11:55:17;17.50;99.90
1447;DHT22;717;51.522;7.266;2023-01-01T11:57:55;17.40;99.90
1447;DHT22;717;51.522;7.266;2023-01-01T12:00:30;17.50;99.90
1447;DHT22;717;51.522;7.266;2023-01-01T12:03:08;17.50;99.90
1447;DHT22;717;51.522;7.266;2023-01-01T12:05:45;17.50;99.90
1447;DHT22;717;51.522;7.266;2023-01-01T12:08:20;17.50;99.90
1447;DHT22;717;51.522;7.266;2023-01-01T12:10:53;17.50;99.90
1447;DHT22;717;51.522;7.266;2023-01-01T12:13:26;17.50;99.90
1447;DHT22;717;51.522;7.266;2023-01-01T12:16:07;17.50;99.90
1447;DHT22;717;51.522;7.266;2023-01-01T12:18:43;17.50;99.90
1447;DHT22;717;51.522;7.266;2023-01-01T12:21:17;17.50;99.90
1447;DHT22;717;51.522;7.266;2023-01-01T12:23:48;17.50;99.90
1447;DHT22;717;51.522;7.266;2023-01-01T12:26:22;17.50;99.90
1447;DHT22;717;51.522;7.266;2023-01-01T12:32:06;17.50;99.90
1447;DHT22;717;51.522;7.266;2023-01-01T12:34:42;17.50;99.90
1447;DHT22;717;51.522;7.266;2023-01-01T12:37:19;17.50;99.90
1447;DHT22;717;51.522;7.266;2023-01-01T12:43:07;17.50;99.90
1447;DHT22;717;51.522;7.266;2023-01-01T12:46:06;17.50;99.90
1447;DHT22;717;51.522;7.266;2023-01-01T12:49:03;17.50;99.90
1447;DHT22;717;51.522;7.266;2023-01-01T12:51:43;17.50;99.90
1447;DHT22;717;51.522;7.266;2023-01-01T12:57:24;17.50;99.90
1447;DHT22;717;51.522;7.266;2023-01-01T12:59:57;17.50;99.90
1447;DHT22;717;51.522;7.266;2023-01-01T13:02:29;17.60;99.90
1447;DHT22;717;51.522;7.266;2023-01-01T13:05:06;17.60;99.90
1447;DHT22;717;51.522;7.266;2023-01-01T13:07:43;17.60;99.90
1447;DHT22;717;51.522;7.266;2023-01-01T13:10:21;17.50;99.90
1447;DHT22;717;51.522;7.266;2023-01-01T13:12:51;17.50;99.90
1447;DHT22;717;51.522;7.266;2023-01-01T13:15:42;17.50;99.90
1447;DHT22;717;51.522;7.266;2023-01-01T13:18:24;17.60;99.90
1447;DHT22;717;51.522;7.266;2023-01-01T13:20:58;17.60;99.90
1447;DHT22;717;51.522;7.266;2023-01-01T13:23:50;17.50;99.90
1447;DHT22;717;51.522;7.266;2023-01-01T13:26:33;17.60;99.90
1447;DHT22;717;51.522;7.266;2023-01-01T13:32:08;17.60;99.90
1447;DHT22;717;51.522;7.266;2023-01-01T13:35:14;17.60;99.90
1447;DHT22;717;51.522;7.266;2023-01-01T13:37:49;17.50;99.90
1447;DHT22;717;51.522;7.266;2023-01-01T13:43:29;17.50;99.90
1447;DHT22;717;51.522;7.266;2023-01-01T13:45:59;17.50;99.90
1447;DHT22;717;51.522;7.266;2023-01-01T13:48:46;17.50;99.90
1447;DHT22;717;51.522;7.266;2023-01-01T13:51:36;17.50;99.90
1447;DHT22;717;51.522;7.266;2023-01-01T13:57:03;17.50;99.90
1447;DHT22;717;51.522;7.266;2023-01-01T13:59:48;17.40;99.90
1447;DHT22;717;51.522;7.266;2023-01-01T14:02:22;17.40;99.90
1447;DHT22;717;51.522;7.266;2023-01-01T14:04:54;17.40;99.90
1447;DHT22;717;51.522;7.266;2023-01-01T14:07:32;17.40;99.90
1447;DHT22;717;51.522;7.266;2023-01-01T14:10:25;17.40;99.90
1447;DHT22;717;51.522;7.266;2023-01-01T14:13:01;17.40;99.90
1447;DHT22;717;51.522;7.266;2023-01-01T14:15:52;17.40;99.90
1447;DHT22;717;51.522;7.266;2023-01-01T14:18:30;17.40;99.90
1447;DHT22;717;51.522;7.266;2023-01-01T14:20:59;17.40;99.90
1447;DHT22;717;51.522;7.266;2023-01-01T14:23:30;17.40;99.90
1447;DHT22;717;51.522;7.266;2023-01-01T14:26:05;17.50;99.90
1447;DHT22;717;51.522;7.266;2023-01-01T14:28:35;17.50;99.90
1447;DHT22;717;51.522;7.266;2023-01-01T14:31:05;17.50;99.90
1447;DHT22;717;51.522;7.266;2023-01-01T14:33:37;17.40;99.90
1447;DHT22;717;51.522;7.266;2023-01-01T14:36:15;17.40;99.90
1447;DHT22;717;51.522;7.266;2023-01-01T14:38:46;17.40;99.90
1447;DHT22;717;51.522;7.266;2023-01-01T14:41:20;17.40;99.90
1447;DHT22;717;51.522;7.266;2023-01-01T14:43:52;17.40;99.90
1447;DHT22;717;51.522;7.266;2023-01-01T14:46:24;17.40;99.90
1447;DHT22;717;51.522;7.266;2023-01-01T14:48:56;17.40;99.90
1447;DHT22;717;51.522;7.266;2023-01-01T14:51:27;17.40;99.90
1447;DHT22;717;51.522;7.266;2023-01-01T14:53:58;17.40;99.90
1447;DHT22;717;51.522;7.266;2023-01-01T14:56:31;17.40;99.90
1447;DHT22;717;51.522;7.266;2023-01-01T14:59:04;17.40;99.90
1447;DHT22;717;51.522;7.266;2023-01-01T15:01:34;17.40;99.90
1447;DHT22;717;51.522;7.266;2023-01-01T15:04:16;17.40;99.90
1447;DHT22;717;51.522;7.266;2023-01-01T15:06:52;17.40;99.90
1447;DHT22;717;51.522;7.266;2023-01-01T15:09:21;17.40;99.90
1447;DHT22;717;51.522;7.266;2023-01-01T15:11:53;17.40;99.90
1447;DHT22;717;51.522;7.266;2023-01-01T15:14:31;17.40;99.90
1447;DHT22;717;51.522;7.266;2023-01-01T15:17:01;17.40;99.90
1447;DHT22;717;51.522;7.266;2023-01-01T15:19:30;17.50;99.90
1447;DHT22;717;51.522;7.266;2023-01-01T15:21:59;17.40;99.90
1447;DHT22;717;51.522;7.266;2023-01-01T15:24:28;17.40;99.90
1447;DHT22;717;51.522;7.266;2023-01-01T15:27:03;17.40;99.90
1447;DHT22;717;51.522;7.266;2023-01-01T15:29:34;17.50;99.90
1447;DHT22;717;51.522;7.266;2023-01-01T15:32:05;17.50;99.90
1447;DHT22;717;51.522;7.266;2023-01-01T15:34:39;17.40;99.90
1447;DHT22;717;51.522;7.266;2023-01-01T15:37:13;17.40;99.90
1447;DHT22;717;51.522;7.266;2023-01-01T15:39:49;17.40;99.90
1447;DHT22;717;51.522;7.266;2023-01-01T15:42:32;17.40;99.90
1447;DHT22;717;51.522;7.266;2023-01-01T15:45:14;17.40;99.90
1447;DHT22;717;51.522;7.266;2023-01-01T15:47:43;17.40;99.90
1447;DHT22;717;51.522;7.266;2023-01-01T15:50:19;17.40;99.90
1447;DHT22;717;51.522;7.266;2023-01-01T15:52:49;17.40;99.90
1447;DHT22;717;51.522;7.266;2023-01-01T15:55:18;17.40;99.90
1447;DHT22;717;51.522;7.266;2023-01-01T15:57:50;17.40;99.90
1447;DHT22;717;51.522;7.266;2023-01-01T16:00:21;17.40;99.90
1447;DHT22;717;51.522;7.266;2023-01-01T16:02:51;17.40;99.90
1447;DHT22;717;51.522;7.266;2023-01-01T16:05:22;17.40;99.90
1447;DHT22;717;51.522;7.266;2023-01-01T16:07:59;17.40;99.90
1447;DHT22;717;51.522;7.266;2023-01-01T16:10:30;17.40;99.90
1447;DHT22;717;51.522;7.266;2023-01-01T16:13:01;17.40;99.90
1447;DHT22;717;51.522;7.266;2023-01-01T16:15:30;17.40;99.90
1447;DHT22;717;51.522;7.266;2023-01-01T16:17:58;17.40;99.90
1447;DHT22;717;51.522;7.266;2023-01-01T16:20:27;17.40;99.90
1447;DHT22;717;51.522;7.266;2023-01-01T16:22:55;17.40;99.90
1447;DHT22;717;51.522;7.266;2023-01-01T16:25:24;17.40;99.90
1447;DHT22;717;51.522;7.266;2023-01-01T16:27:53;17.40;99.90
1447;DHT22;717;51.522;7.266;2023-01-01T16:30:24;17.30;99.90
1447;DHT22;717;51.522;7.266;2023-01-01T16:32:53;17.30;99.90
1447;DHT22;717;51.522;7.266;2023-01-01T16:35:21;17.20;99.90
1447;DHT22;717;51.522;7.266;2023-01-01T16:37:50;17.30;99.90
1447;DHT22;717;51.522;7.266;2023-01-01T16:40:19;17.20;99.90
1447;DHT22;717;51.522;7.266;2023-01-01T16:42:47;17.20;99.90
1447;DHT22;717;51.522;7.266;2023-01-01T16:45:17;17.20;99.90
1447;DHT22;717;51.522;7.266;2023-01-01T16:47:48;17.20;99.90
1447;DHT22;717;51.522;7.266;2023-01-01T16:50:17;17.10;99.90
1447;DHT22;717;51.522;7.266;2023-01-01T16:52:46;17.10;99.90
1447;DHT22;717;51.522;7.266;2023-01-01T16:55:14;17.10;99.90
1447;DHT22;717;51.522;7.266;2023-01-01T16:57:43;17.10;99.90
1447;DHT22;717;51.522;7.266;2023-01-01T17:00:13;17.00;99.90
1447;DHT22;717;51.522;7.266;2023-01-01T17:02:42;17.00;99.90
1447;DHT22;717;51.522;7.266;2023-01-01T17:05:13;17.00;99.90
1447;DHT22;717;51.522;7.266;2023-01-01T17:07:41;17.00;99.90
1447;DHT22;717;51.522;7.266;2023-01-01T17:10:10;17.00;99.90
1447;DHT22;717;51.522;7.266;2023-01-01T17:12:38;16.90;99.90